createdAt,value
2022-09-14T00:01:47.328Z,18.20
2022-09-14T00:04:17.483Z,18.20
2022-09-14T00:06:44.829Z,18.20
2022-09-14T00:09:21.024Z,18.20
2022-09-14T00:11:48.656Z,18.20
2022-09-14T00:14:16.549Z,18.20
2022-09-14T00:16:43.867Z,18.10
2022-09-14T00:19:22.808Z,18.10
2022-09-14T00:21:55.790Z,18.10
2022-09-14T00:24:23.967Z,18.10
2022-09-14T00:26:51.439Z,18.10
2022-09-14T00:29:18.492Z,18.10
2022-09-14T00:31:45.918Z,18.00
2022-09-14T00:34:15.863Z,18.10
2022-09-14T00:36:47.564Z,18.00
2022-09-14T00:39:17.296Z,18.00
2022-09-14T00:41:46.782Z,18.00
2022-09-14T00:44:13.453Z,18.10
2022-09-14T00:46:43.581Z,18.00
2022-09-14T00:49:15.560Z,18.00
2022-09-14T00:51:53.143Z,17.90
2022-09-14T00:54:20.060Z,17.90
2022-09-14T00:56:48.323Z,17.80
2022-09-14T00:59:26.497Z,17.90
2022-09-14T01:01:54.117Z,17.90
2022-09-14T01:04:52.585Z,17.80
2022-09-14T01:07:44.282Z,17.90
2022-09-14T01:10:25.986Z,17.90
2022-09-14T01:13:29.000Z,17.80
2022-09-14T01:16:30.584Z,17.80
2022-09-14T01:19:00.355Z,17.80
2022-09-14T01:21:32.598Z,17.70
2022-09-14T01:24:14.560Z,17.70
2022-09-14T01:27:11.916Z,17.60
2022-09-14T01:29:47.511Z,17.50
2022-09-14T01:32:24.787Z,17.40
2022-09-14T01:35:01.635Z,17.40
2022-09-14T01:37:41.253Z,17.40
2022-09-14T01:40:31.893Z,17.50
2022-09-14T01:43:14.047Z,17.60
2022-09-14T01:45:47.286Z,17.60
2022-09-14T01:52:29.183Z,17.50
2022-09-14T01:55:03.235Z,17.60
2022-09-14T01:57:42.681Z,17.60
2022-09-14T02:00:16.880Z,17.60
2022-09-14T02:02:54.974Z,17.60
2022-09-14T02:05:31.043Z,17.70
2022-09-14T02:07:58.027Z,17.60
2022-09-14T02:10:25.711Z,17.70
2022-09-14T02:12:54.014Z,17.70
2022-09-14T02:15:21.336Z,17.80
2022-09-14T02:17:48.385Z,17.70
2022-09-14T02:20:32.344Z,17.70
2022-09-14T02:22:59.655Z,17.70
2022-09-14T02:25:26.950Z,17.70
2022-09-14T02:27:53.676Z,17.70
2022-09-14T02:30:20.759Z,17.70
2022-09-14T02:33:08.425Z,17.70
2022-09-14T02:35:40.641Z,17.70
2022-09-14T02:38:13.251Z,17.70
2022-09-14T02:40:53.329Z,17.70
2022-09-14T02:43:38.399Z,17.70
2022-09-14T02:46:35.819Z,17.70
2022-09-14T02:49:17.685Z,17.60
2022-09-14T02:52:07.376Z,17.60
2022-09-14T02:54:57.505Z,17.60
2022-09-14T02:57:24.374Z,17.60
2022-09-14T02:59:54.231Z,17.70
2022-09-14T03:02:21.121Z,17.70
2022-09-14T03:04:47.889Z,17.70
2022-09-14T03:07:14.678Z,17.70
2022-09-14T03:09:41.424Z,17.70
2022-09-14T03:12:08.183Z,17.70
2022-09-14T03:14:34.960Z,17.70
2022-09-14T03:17:01.785Z,17.70
2022-09-14T03:19:28.519Z,17.60
2022-09-14T03:22:03.050Z,17.60
2022-09-14T03:24:29.882Z,17.60
2022-09-14T03:26:56.676Z,17.60
2022-09-14T03:29:23.520Z,17.60
2022-09-14T03:31:50.427Z,17.60
2022-09-14T03:34:17.211Z,17.60
2022-09-14T03:36:43.988Z,17.50
2022-09-14T03:39:10.831Z,17.50
2022-09-14T03:41:37.957Z,17.50
2022-09-14T03:44:04.772Z,17.60
2022-09-14T03:46:31.911Z,17.50
2022-09-14T03:48:58.647Z,17.50
2022-09-14T03:51:25.696Z,17.50
2022-09-14T03:53:52.514Z,17.50
2022-09-14T03:56:21.480Z,17.50
2022-09-14T03:58:49.464Z,17.50
2022-09-14T04:01:19.537Z,17.50
2022-09-14T04:03:50.311Z,17.50
2022-09-14T04:06:18.258Z,17.50
2022-09-14T04:08:46.320Z,17.50
2022-09-14T04:11:17.262Z,17.50
2022-09-14T04:13:44.935Z,17.50
2022-09-14T04:16:12.627Z,17.50
2022-09-14T04:18:39.644Z,17.50
2022-09-14T04:21:10.386Z,17.50
2022-09-14T04:23:51.330Z,17.50
2022-09-14T04:26:26.778Z,17.50
2022-09-14T04:28:53.906Z,17.50
2022-09-14T04:31:20.775Z,17.50
2022-09-14T04:33:50.707Z,17.50
2022-09-14T04:36:22.684Z,17.50
2022-09-14T04:38:53.965Z,17.40
2022-09-14T04:41:21.883Z,17.40
2022-09-14T04:43:52.925Z,17.40
2022-09-14T04:46:25.767Z,17.40
2022-09-14T04:48:52.849Z,17.40
2022-09-14T04:51:31.608Z,17.40
2022-09-14T04:54:01.877Z,17.50
2022-09-14T04:56:32.142Z,17.40
2022-09-14T04:59:00.568Z,17.50
2022-09-14T05:01:30.538Z,17.50
2022-09-14T05:03:57.486Z,17.50
2022-09-14T05:06:26.480Z,17.50
2022-09-14T05:08:54.168Z,17.50
2022-09-14T05:11:23.551Z,17.50
2022-09-14T05:13:51.087Z,17.50
2022-09-14T05:16:40.941Z,17.50
2022-09-14T05:19:10.723Z,17.50
2022-09-14T05:21:38.296Z,17.60
2022-09-14T05:24:19.420Z,17.60
2022-09-14T05:26:47.060Z,17.50
2022-09-14T05:29:16.113Z,17.60
2022-09-14T05:31:43.526Z,17.60
2022-09-14T05:34:12.270Z,17.60
2022-09-14T05:36:42.722Z,17.70
2022-09-14T05:39:10.191Z,17.70
2022-09-14T05:41:37.733Z,17.70
2022-09-14T05:44:05.419Z,17.70
2022-09-14T05:46:32.944Z,17.80
2022-09-14T05:48:59.814Z,17.70
2022-09-14T05:51:27.998Z,17.70
2022-09-14T05:53:59.129Z,17.70
2022-09-14T05:56:28.284Z,17.80
2022-09-14T05:58:55.570Z,17.80
2022-09-14T06:01:33.057Z,17.80
2022-09-14T06:04:04.985Z,17.80
2022-09-14T06:06:33.012Z,17.80
2022-09-14T06:09:00.372Z,17.90
2022-09-14T06:11:29.839Z,17.90
2022-09-14T06:13:57.172Z,17.90
2022-09-14T06:16:25.942Z,17.90
2022-09-14T06:18:53.999Z,17.90
2022-09-14T06:21:35.216Z,18.00
2022-09-14T06:24:02.247Z,18.00
2022-09-14T06:26:29.060Z,18.00
2022-09-14T06:28:55.844Z,18.00
2022-09-14T06:31:22.755Z,18.10
2022-09-14T06:33:51.670Z,18.10
2022-09-14T06:36:23.948Z,18.10
2022-09-14T06:38:50.858Z,18.20
2022-09-14T06:41:20.804Z,18.20
2022-09-14T06:43:48.914Z,18.20
2022-09-14T06:46:21.937Z,18.30
2022-09-14T06:48:55.836Z,18.30
2022-09-14T06:51:25.600Z,18.20
2022-09-14T06:53:53.923Z,18.40
2022-09-14T06:56:21.487Z,18.40
2022-09-14T06:58:49.957Z,18.40
2022-09-14T07:01:19.920Z,18.40
2022-09-14T07:03:47.630Z,18.40
2022-09-14T07:06:21.957Z,18.50
2022-09-14T07:08:50.196Z,18.50
2022-09-14T07:11:20.751Z,18.60
2022-09-14T07:13:48.913Z,18.50
2022-09-14T07:16:16.130Z,18.60
2022-09-14T07:18:43.189Z,18.70
2022-09-14T07:21:16.667Z,18.70
2022-09-14T07:23:45.338Z,18.80
2022-09-14T07:26:24.740Z,18.80
2022-09-14T07:28:55.906Z,18.80
2022-09-14T07:31:32.620Z,18.90
2022-09-14T07:34:02.013Z,18.90
2022-09-14T07:36:33.974Z,18.90
2022-09-14T07:39:02.931Z,19.00
2022-09-14T07:41:32.312Z,19.10
2022-09-14T07:44:00.866Z,19.10
2022-09-14T07:46:29.807Z,19.10
2022-09-14T07:49:40.280Z,19.20
2022-09-14T07:52:06.986Z,19.30
2022-09-14T07:54:35.574Z,19.40
2022-09-14T07:57:02.480Z,19.50
2022-09-14T07:59:36.159Z,19.50
2022-09-14T08:02:07.000Z,19.60
2022-09-14T08:04:39.291Z,19.70
2022-09-14T08:07:06.531Z,19.70
2022-09-14T08:09:33.413Z,19.80
2022-09-14T08:12:00.554Z,19.90
2022-09-14T08:14:27.410Z,20.00
2022-09-14T08:16:54.150Z,20.10
2022-09-14T08:19:21.022Z,20.10
2022-09-14T08:21:48.155Z,20.10
2022-09-14T08:24:17.588Z,20.10
2022-09-14T08:26:44.824Z,20.10
2022-09-14T08:29:13.545Z,20.10
2022-09-14T08:31:40.633Z,20.10
2022-09-14T08:34:07.617Z,20.20
2022-09-14T08:36:37.548Z,20.20
2022-09-14T08:39:11.944Z,20.20
2022-09-14T08:41:38.523Z,20.20
2022-09-14T08:44:05.155Z,20.20
2022-09-14T08:46:45.370Z,20.10
2022-09-14T08:49:31.278Z,20.20
2022-09-14T08:51:58.144Z,20.10
2022-09-14T08:54:25.398Z,20.20
2022-09-14T08:57:16.446Z,20.30
2022-09-14T09:00:00.867Z,20.30
2022-09-14T09:03:01.580Z,20.50
2022-09-14T09:05:58.927Z,20.70
2022-09-14T09:08:40.736Z,20.80
2022-09-14T09:11:14.639Z,21.00
2022-09-14T09:13:43.814Z,21.20
2022-09-14T09:16:12.284Z,21.40
2022-09-14T09:18:48.984Z,21.50
2022-09-14T09:21:21.143Z,21.60
2022-09-14T09:23:48.123Z,21.60
2022-09-14T09:26:29.513Z,21.80
2022-09-14T09:29:01.837Z,21.90
2022-09-14T09:31:35.774Z,22.20
2022-09-14T09:34:06.376Z,22.50
2022-09-14T09:36:42.604Z,22.60
2022-09-14T09:39:10.260Z,22.60
2022-09-14T09:41:59.608Z,22.70
2022-09-14T09:44:26.702Z,22.60
2022-09-14T09:47:01.747Z,22.60
2022-09-14T09:49:34.905Z,22.80
2022-09-14T09:52:15.749Z,23.00
2022-09-14T09:54:50.317Z,23.00
2022-09-14T09:57:29.334Z,22.90
2022-09-14T10:00:27.234Z,23.20
2022-09-14T10:02:55.374Z,23.60
2022-09-14T10:05:31.584Z,23.80
2022-09-14T10:07:59.843Z,23.60
2022-09-14T10:10:35.824Z,23.60
2022-09-14T10:13:06.105Z,23.60
2022-09-14T10:15:34.937Z,23.60
2022-09-14T10:18:05.688Z,23.80
2022-09-14T10:20:32.895Z,24.00
2022-09-14T10:23:27.597Z,24.00
2022-09-14T10:26:12.436Z,23.80
2022-09-14T10:28:39.919Z,23.60
2022-09-14T10:31:09.503Z,23.60
2022-09-14T10:33:36.665Z,23.50
2022-09-14T10:36:14.962Z,23.40
2022-09-14T10:38:53.072Z,23.40
2022-09-14T10:41:40.052Z,23.30
2022-09-14T10:44:23.855Z,23.30
2022-09-14T10:47:04.389Z,23.30
2022-09-14T10:49:43.591Z,23.30
2022-09-14T10:52:50.348Z,23.40
2022-09-14T10:55:51.568Z,23.40
2022-09-14T10:58:50.528Z,23.60
2022-09-14T11:01:37.983Z,23.70
2022-09-14T11:04:32.348Z,23.80
2022-09-14T11:07:23.667Z,23.90
2022-09-14T11:10:11.060Z,24.00
2022-09-14T11:13:18.847Z,24.20
2022-09-14T11:16:04.216Z,24.40
2022-09-14T11:18:48.414Z,24.60
2022-09-14T11:21:37.116Z,24.70
2022-09-14T11:24:25.975Z,24.80
2022-09-14T11:27:21.295Z,25.10
2022-09-14T11:30:15.349Z,25.20
2022-09-14T11:32:59.617Z,25.30
2022-09-14T11:35:45.183Z,25.30
2022-09-14T11:38:20.321Z,25.20
2022-09-14T11:41:01.814Z,25.10
2022-09-14T11:43:39.931Z,24.90
2022-09-14T11:46:16.194Z,24.80
2022-09-14T11:49:31.171Z,24.70
2022-09-14T11:52:21.372Z,24.60
2022-09-14T11:54:49.917Z,24.40
2022-09-14T11:57:20.365Z,24.40
2022-09-14T11:59:50.676Z,24.30
2022-09-14T12:02:23.318Z,24.20
2022-09-14T12:05:05.528Z,24.20
2022-09-14T12:07:47.474Z,24.20
2022-09-14T12:10:14.375Z,24.10
2022-09-14T12:12:49.988Z,24.10
2022-09-14T12:15:19.884Z,24.10
2022-09-14T12:17:47.836Z,24.00
2022-09-14T12:20:35.499Z,24.00
2022-09-14T12:23:12.959Z,24.00
2022-09-14T12:25:52.448Z,23.90
2022-09-14T12:28:37.368Z,23.80
2022-09-14T12:31:04.261Z,23.70
2022-09-14T12:33:31.362Z,23.70
2022-09-14T12:36:01.515Z,23.60
2022-09-14T12:38:31.510Z,23.50
2022-09-14T12:41:10.227Z,23.40
2022-09-14T12:43:37.093Z,23.30
2022-09-14T12:46:22.089Z,23.30
2022-09-14T12:48:48.884Z,23.20
2022-09-14T12:51:44.396Z,23.10
2022-09-14T12:54:49.206Z,22.90
2022-09-14T12:57:45.655Z,22.70
2022-09-14T13:00:13.360Z,22.50
2022-09-14T13:02:53.279Z,22.40
2022-09-14T13:05:24.582Z,22.30
2022-09-14T13:07:51.929Z,22.20
2022-09-14T13:10:45.910Z,22.20
2022-09-14T13:13:19.340Z,22.10
2022-09-14T13:15:55.453Z,22.00
2022-09-14T13:18:22.156Z,21.80
2022-09-14T13:20:57.457Z,21.80
2022-09-14T13:23:37.135Z,21.80
2022-09-14T13:26:13.073Z,21.70
2022-09-14T13:28:44.333Z,21.70
2022-09-14T13:31:17.910Z,21.60
2022-09-14T13:33:49.998Z,21.50
2022-09-14T13:36:23.971Z,21.40
2022-09-14T13:38:51.517Z,21.40
2022-09-14T13:41:22.163Z,21.30
2022-09-14T13:43:52.321Z,21.30
2022-09-14T13:46:20.628Z,21.30
2022-09-14T13:48:48.048Z,21.30
2022-09-14T13:51:15.453Z,21.30
2022-09-14T13:53:45.802Z,21.30
2022-09-14T13:56:18.676Z,21.30
2022-09-14T13:58:46.714Z,21.20
2022-09-14T14:01:23.082Z,21.10
2022-09-14T14:03:50.277Z,21.10
2022-09-14T14:06:26.825Z,21.10
2022-09-14T14:08:57.095Z,21.10
2022-09-14T14:11:42.436Z,21.10
2022-09-14T14:14:20.168Z,21.10
2022-09-14T14:17:24.403Z,21.10
2022-09-14T14:19:53.052Z,21.00
2022-09-14T14:22:24.679Z,21.00
2022-09-14T14:27:43.170Z,20.90
2022-09-14T14:30:16.206Z,20.80
2022-09-14T14:32:42.840Z,20.80
2022-09-14T14:35:19.922Z,20.70
2022-09-14T14:37:47.742Z,20.70
2022-09-14T14:40:15.206Z,20.70
2022-09-14T14:42:42.526Z,20.70
2022-09-14T14:45:19.062Z,20.70
2022-09-14T14:47:47.224Z,20.60
2022-09-14T14:50:20.382Z,20.60
2022-09-14T14:52:47.127Z,20.60
2022-09-14T14:55:14.004Z,20.60
2022-09-14T14:57:40.915Z,20.50
2022-09-14T15:00:17.263Z,20.30
2022-09-14T15:02:44.156Z,20.10
2022-09-14T15:05:11.673Z,20.10
2022-09-14T15:07:38.932Z,20.20
2022-09-14T15:10:07.155Z,20.20
2022-09-14T15:12:34.150Z,20.10
2022-09-14T15:15:01.312Z,20.20
2022-09-14T15:17:27.946Z,20.10
2022-09-14T15:19:54.564Z,20.00
2022-09-14T15:22:21.396Z,20.00
2022-09-14T15:24:47.988Z,20.00
2022-09-14T15:27:14.800Z,20.00
2022-09-14T15:29:41.445Z,19.90
2022-09-14T15:32:08.168Z,19.90
2022-09-14T15:34:34.813Z,19.90
2022-09-14T15:37:01.730Z,19.90
2022-09-14T15:39:31.306Z,19.90
2022-09-14T15:41:58.711Z,19.90
2022-09-14T15:44:25.706Z,19.80
2022-09-14T15:46:52.944Z,19.80
2022-09-14T15:49:21.962Z,19.70
2022-09-14T15:51:51.491Z,19.70
2022-09-14T15:54:19.767Z,19.60
2022-09-14T15:56:51.357Z,19.50
2022-09-14T15:59:19.053Z,19.60
2022-09-14T16:01:46.088Z,19.60
2022-09-14T16:04:12.969Z,19.70
2022-09-14T16:06:40.176Z,19.60
2022-09-14T16:09:08.563Z,19.60
2022-09-14T16:11:36.137Z,19.60
2022-09-14T16:14:05.324Z,19.50
2022-09-14T16:16:33.068Z,19.50
2022-09-14T16:19:08.565Z,19.50
2022-09-14T16:21:36.185Z,19.50
2022-09-14T16:24:05.524Z,19.50
2022-09-14T16:26:35.913Z,19.40
2022-09-14T16:29:02.809Z,19.50
2022-09-14T16:31:32.537Z,19.50
2022-09-14T16:34:02.702Z,19.40
2022-09-14T16:36:36.291Z,19.40
2022-09-14T16:39:05.680Z,19.40
2022-09-14T16:41:32.614Z,19.40
2022-09-14T16:44:01.323Z,19.40
2022-09-14T16:46:29.819Z,19.40
2022-09-14T16:48:58.595Z,19.40
2022-09-14T16:51:27.115Z,19.40
2022-09-14T16:53:54.584Z,19.40
2022-09-14T16:56:24.243Z,19.40
2022-09-14T16:58:52.696Z,19.40
2022-09-14T17:01:23.416Z,19.40
2022-09-14T17:03:51.968Z,19.40
2022-09-14T17:06:21.421Z,19.40
2022-09-14T17:08:49.220Z,19.30
2022-09-14T17:11:16.961Z,19.20
2022-09-14T17:13:44.607Z,19.20
2022-09-14T17:16:13.873Z,19.30
2022-09-14T17:18:42.367Z,19.30
2022-09-14T17:21:13.288Z,19.30
2022-09-14T17:23:40.951Z,19.30
2022-09-14T17:26:09.851Z,19.20
2022-09-14T17:28:37.681Z,19.20
2022-09-14T17:31:07.596Z,19.20
2022-09-14T17:33:35.684Z,19.20
2022-09-14T17:36:04.686Z,19.10
2022-09-14T17:38:37.191Z,19.10
2022-09-14T17:41:23.223Z,19.10
2022-09-14T17:43:56.642Z,19.10
2022-09-14T17:46:24.385Z,19.00
2022-09-14T17:48:51.889Z,19.00
2022-09-14T17:51:25.529Z,18.90
2022-09-14T17:53:55.105Z,18.90
2022-09-14T17:56:23.737Z,18.90
2022-09-14T17:58:58.787Z,18.80
2022-09-14T18:01:26.269Z,18.80
2022-09-14T18:04:04.156Z,18.70
2022-09-14T18:06:34.597Z,18.60
2022-09-14T18:09:05.375Z,18.60
2022-09-14T18:11:32.760Z,18.50
2022-09-14T18:13:59.895Z,18.40
2022-09-14T18:16:27.330Z,18.40
2022-09-14T18:18:54.260Z,18.30
2022-09-14T18:21:21.148Z,18.30
2022-09-14T18:23:49.626Z,18.30
2022-09-14T18:26:17.021Z,18.30
2022-09-14T18:28:44.632Z,18.40
2022-09-14T18:31:14.088Z,18.30
2022-09-14T18:33:47.191Z,18.30
2022-09-14T18:36:15.128Z,18.30
2022-09-14T18:38:42.443Z,18.30
2022-09-14T18:41:10.465Z,18.30
2022-09-14T18:43:37.641Z,18.30
2022-09-14T18:46:07.800Z,18.30
2022-09-14T18:48:35.231Z,18.30
2022-09-14T18:51:05.387Z,18.30
2022-09-14T18:53:32.776Z,18.20
2022-09-14T18:56:07.888Z,18.10
2022-09-14T18:58:36.613Z,18.10
2022-09-14T19:01:04.315Z,18.10
2022-09-14T19:03:34.113Z,18.10
2022-09-14T19:06:06.501Z,18.10
2022-09-14T19:08:34.076Z,18.10
2022-09-14T19:11:15.934Z,18.00
2022-09-14T19:13:42.945Z,18.00
2022-09-14T19:16:13.140Z,17.90
2022-09-14T19:18:40.932Z,17.90
2022-09-14T19:21:23.363Z,17.90
2022-09-14T19:24:03.283Z,17.90
2022-09-14T19:26:40.026Z,17.80
2022-09-14T19:29:15.413Z,17.80
2022-09-14T19:31:42.657Z,17.80
2022-09-14T19:34:11.107Z,17.80
2022-09-14T19:36:37.736Z,17.80
2022-09-14T19:39:04.982Z,17.80
2022-09-14T19:41:33.641Z,17.80
2022-09-14T19:44:00.859Z,17.80
2022-09-14T19:46:28.328Z,17.70
2022-09-14T19:48:55.342Z,17.70
2022-09-14T19:51:25.223Z,17.70
2022-09-14T19:53:54.410Z,17.70
2022-09-14T19:56:25.349Z,17.70
2022-09-14T19:58:55.128Z,17.60
2022-09-14T20:01:25.469Z,17.60
2022-09-14T20:03:53.066Z,17.60
2022-09-14T20:06:23.674Z,17.60
2022-09-14T20:09:12.227Z,17.60
2022-09-14T20:11:40.414Z,17.50
2022-09-14T20:14:10.081Z,17.50
2022-09-14T20:16:42.282Z,17.50
2022-09-14T20:19:11.844Z,17.50
2022-09-14T20:21:41.221Z,17.40
2022-09-14T20:24:16.163Z,17.40
2022-09-14T20:26:45.166Z,17.40
2022-09-14T20:29:11.974Z,17.30
2022-09-14T20:31:39.055Z,17.30
2022-09-14T20:34:06.066Z,17.30
2022-09-14T20:36:32.872Z,17.20
2022-09-14T20:38:59.955Z,17.20
2022-09-14T20:41:29.636Z,17.20
2022-09-14T20:43:56.961Z,17.10
2022-09-14T20:46:36.164Z,17.10
2022-09-14T20:49:05.399Z,17.10
2022-09-14T20:51:32.157Z,17.00
2022-09-14T20:53:58.943Z,17.00
2022-09-14T20:56:28.869Z,17.00
2022-09-14T20:58:57.995Z,17.00
2022-09-14T21:01:28.755Z,16.90
2022-09-14T21:04:00.689Z,16.90
2022-09-14T21:06:27.279Z,16.90
2022-09-14T21:08:54.209Z,16.90
2022-09-14T21:11:25.955Z,16.90
2022-09-14T21:13:54.768Z,16.90
2022-09-14T21:16:23.684Z,16.80
2022-09-14T21:18:56.345Z,16.90
2022-09-14T21:21:23.190Z,16.80
2022-09-14T21:23:50.494Z,16.80
2022-09-14T21:26:19.235Z,16.80
2022-09-14T21:28:46.544Z,16.80
2022-09-14T21:31:16.296Z,16.80
2022-09-14T21:33:46.061Z,16.80
2022-09-14T21:36:16.091Z,16.80
2022-09-14T21:38:42.709Z,16.80
2022-09-14T21:41:11.182Z,16.70
2022-09-14T21:43:41.698Z,16.70
2022-09-14T21:46:09.653Z,16.70
2022-09-14T21:48:37.595Z,16.70
2022-09-14T21:51:18.500Z,16.70
2022-09-14T21:53:46.416Z,16.80
2022-09-14T21:56:13.242Z,16.80
2022-09-14T21:58:40.028Z,16.70
2022-09-14T22:01:06.945Z,16.70
2022-09-14T22:03:34.079Z,16.70
2022-09-14T22:06:02.665Z,16.70
2022-09-14T22:08:33.507Z,16.70
2022-09-14T22:11:12.817Z,16.70
2022-09-14T22:13:40.415Z,16.70
2022-09-14T22:16:15.010Z,16.70
2022-09-14T22:18:51.509Z,16.60
2022-09-14T22:21:19.421Z,16.60
2022-09-14T22:23:54.903Z,16.50
2022-09-14T22:26:22.801Z,16.50
2022-09-14T22:28:51.411Z,16.50
2022-09-14T22:31:22.076Z,16.50
2022-09-14T22:34:01.251Z,16.50
2022-09-14T22:36:28.330Z,16.50
2022-09-14T22:38:59.157Z,16.50
2022-09-14T22:41:27.138Z,16.50
2022-09-14T22:43:54.945Z,16.50
2022-09-14T22:46:23.179Z,16.40
2022-09-14T22:48:50.531Z,16.40
2022-09-14T22:51:20.372Z,16.40
2022-09-14T22:53:46.945Z,16.40
2022-09-14T22:56:37.850Z,16.40
2022-09-14T22:59:09.877Z,16.40
2022-09-14T23:01:39.995Z,16.40
2022-09-14T23:04:10.722Z,16.40
2022-09-14T23:06:47.833Z,16.50
2022-09-14T23:09:21.910Z,16.50
2022-09-14T23:11:49.124Z,16.60
2022-09-14T23:14:16.621Z,16.60
2022-09-14T23:16:44.910Z,16.50
2022-09-14T23:19:15.684Z,16.70
2022-09-14T23:21:42.257Z,16.70
2022-09-14T23:24:10.495Z,16.80
2022-09-14T23:26:37.607Z,16.80
2022-09-14T23:29:07.307Z,16.80
2022-09-14T23:31:34.812Z,16.80
2022-09-14T23:34:03.905Z,16.90
2022-09-14T23:36:31.211Z,16.90
2022-09-14T23:38:58.343Z,16.90
2022-09-14T23:41:41.036Z,16.90
2022-09-14T23:44:19.181Z,16.90
2022-09-14T23:46:47.566Z,16.90
2022-09-14T23:49:17.613Z,16.90
2022-09-14T23:51:47.501Z,17.00
2022-09-14T23:54:20.614Z,16.90
2022-09-14T23:56:51.577Z,16.90
2022-09-14T23:59:18.379Z,16.90
